sensor_id;sensor_type;location;lat;lon;timestamp;P1;durP1;ratioP1;P2;durP2;ratioP2
549;SDS011;20066;48.764;9.176;2023-05-15T00:00:30;9.47;;;6.00;;
549;SDS011;20066;48.764;9.176;2023-05-15T00:02:58;9.30;;;5.37;;
549;SDS011;20066;48.764;9.176;2023-05-15T00:05:27;7.73;;;5.37;;
549;SDS011;20066;48.764;9.176;2023-05-15T00:07:55;8.70;;;5.73;;
549;SDS011;20066;48.764;9.176;2023-05-15T00:10:22;8.17;;;5.53;;
549;SDS011;20066;48.764;9.176;2023-05-15T00:12:50;7.33;;;5.23;;
549;SDS011;20066;48.764;9.176;2023-05-15T00:15:18;7.93;;;5.23;;
549;SDS011;20066;48.764;9.176;2023-05-15T00:17:46;8.70;;;5.80;;
549;SDS011;20066;48.764;9.176;2023-05-15T00:20:13;9.83;;;5.30;;
549;SDS011;20066;48.764;9.176;2023-05-15T00:22:42;8.03;;;5.23;;
549;SDS011;20066;48.764;9.176;2023-05-15T00:25:10;8.93;;;5.20;;
549;SDS011;20066;48.764;9.176;2023-05-15T00:27:38;11.10;;;5.80;;
549;SDS011;20066;48.764;9.176;2023-05-15T00:30:06;12.57;;;5.53;;
549;SDS011;20066;48.764;9.176;2023-05-15T00:32:35;7.63;;;5.27;;
549;SDS011;20066;48.764;9.176;2023-05-15T00:35:03;9.00;;;5.70;;
549;SDS011;20066;48.764;9.176;2023-05-15T00:37:31;9.30;;;5.53;;
549;SDS011;20066;48.764;9.176;2023-05-15T00:40:00;7.40;;;5.03;;
549;SDS011;20066;48.764;9.176;2023-05-15T00:42:28;8.03;;;5.67;;
549;SDS011;20066;48.764;9.176;2023-05-15T00:44:56;10.17;;;5.80;;
549;SDS011;20066;48.764;9.176;2023-05-15T00:47:27;8.87;;;5.37;;
549;SDS011;20066;48.764;9.176;2023-05-15T00:49:55;8.20;;;5.27;;
549;SDS011;20066;48.764;9.176;2023-05-15T00:52:23;9.60;;;5.70;;
549;SDS011;20066;48.764;9.176;2023-05-15T00:54:52;7.27;;;5.03;;
549;SDS011;20066;48.764;9.176;2023-05-15T00:57:21;7.40;;;5.20;;
549;SDS011;20066;48.764;9.176;2023-05-15T00:59:52;8.40;;;5.03;;
549;SDS011;20066;48.764;9.176;2023-05-15T01:02:23;6.93;;;4.87;;
549;SDS011;20066;48.764;9.176;2023-05-15T01:04:50;6.20;;;4.77;;
549;SDS011;20066;48.764;9.176;2023-05-15T01:07:18;7.37;;;4.80;;
549;SDS011;20066;48.764;9.176;2023-05-15T01:09:46;8.23;;;5.03;;
549;SDS011;20066;48.764;9.176;2023-05-15T01:12:16;6.53;;;5.10;;
549;SDS011;20066;48.764;9.176;2023-05-15T01:14:48;9.87;;;5.80;;
549;SDS011;20066;48.764;9.176;2023-05-15T01:17:19;7.03;;;4.63;;
549;SDS011;20066;48.764;9.176;2023-05-15T01:19:46;7.00;;;4.77;;
549;SDS011;20066;48.764;9.176;2023-05-15T01:22:27;7.40;;;4.27;;
549;SDS011;20066;48.764;9.176;2023-05-15T01:25:21;7.73;;;5.23;;
549;SDS011;20066;48.764;9.176;2023-05-15T01:28:22;7.80;;;5.10;;
549;SDS011;20066;48.764;9.176;2023-05-15T01:30:56;7.37;;;4.33;;
549;SDS011;20066;48.764;9.176;2023-05-15T01:33:32;9.43;;;5.40;;
549;SDS011;20066;48.764;9.176;2023-05-15T01:36:02;7.93;;;4.60;;
549;SDS011;20066;48.764;9.176;2023-05-15T01:38:38;9.10;;;5.20;;
549;SDS011;20066;48.764;9.176;2023-05-15T01:41:14;8.50;;;5.20;;
549;SDS011;20066;48.764;9.176;2023-05-15T01:43:46;8.20;;;5.13;;
549;SDS011;20066;48.764;9.176;2023-05-15T01:46:21;10.40;;;5.37;;
549;SDS011;20066;48.764;9.176;2023-05-15T01:48:50;7.00;;;4.87;;
549;SDS011;20066;48.764;9.176;2023-05-15T01:51:19;9.43;;;5.50;;
549;SDS011;20066;48.764;9.176;2023-05-15T01:53:49;7.70;;;4.53;;
549;SDS011;20066;48.764;9.176;2023-05-15T01:56:18;9.13;;;5.27;;
549;SDS011;20066;48.764;9.176;2023-05-15T01:58:48;6.33;;;4.83;;
549;SDS011;20066;48.764;9.176;2023-05-15T02:01:18;9.07;;;4.53;;
549;SDS011;20066;48.764;9.176;2023-05-15T02:03:47;10.40;;;4.77;;
549;SDS011;20066;48.764;9.176;2023-05-15T02:06:15;6.83;;;4.73;;
549;SDS011;20066;48.764;9.176;2023-05-15T02:08:44;7.97;;;4.53;;
549;SDS011;20066;48.764;9.176;2023-05-15T02:11:13;7.37;;;4.60;;
549;SDS011;20066;48.764;9.176;2023-05-15T02:13:41;6.50;;;4.43;;
549;SDS011;20066;48.764;9.176;2023-05-15T02:16:11;8.10;;;4.43;;
549;SDS011;20066;48.764;9.176;2023-05-15T02:18:38;6.63;;;4.90;;
549;SDS011;20066;48.764;9.176;2023-05-15T02:21:06;7.50;;;5.10;;
549;SDS011;20066;48.764;9.176;2023-05-15T02:23:34;8.73;;;4.40;;
549;SDS011;20066;48.764;9.176;2023-05-15T02:26:06;6.77;;;5.00;;
549;SDS011;20066;48.764;9.176;2023-05-15T02:28:41;11.93;;;5.07;;
549;SDS011;20066;48.764;9.176;2023-05-15T02:31:18;7.30;;;4.73;;
549;SDS011;20066;48.764;9.176;2023-05-15T02:33:57;5.80;;;4.43;;
549;SDS011;20066;48.764;9.176;2023-05-15T02:36:31;10.13;;;5.07;;
549;SDS011;20066;48.764;9.176;2023-05-15T02:39:02;10.13;;;5.20;;
549;SDS011;20066;48.764;9.176;2023-05-15T02:41:30;7.10;;;4.90;;
549;SDS011;20066;48.764;9.176;2023-05-15T02:43:59;8.20;;;5.20;;
549;SDS011;20066;48.764;9.176;2023-05-15T02:46:29;7.13;;;4.40;;
549;SDS011;20066;48.764;9.176;2023-05-15T02:48:58;8.07;;;5.00;;
549;SDS011;20066;48.764;9.176;2023-05-15T02:51:26;7.83;;;4.70;;
549;SDS011;20066;48.764;9.176;2023-05-15T02:53:55;7.50;;;4.87;;
549;SDS011;20066;48.764;9.176;2023-05-15T02:56:25;7.10;;;4.70;;
549;SDS011;20066;48.764;9.176;2023-05-15T02:58:53;7.97;;;4.50;;
549;SDS011;20066;48.764;9.176;2023-05-15T03:01:21;8.53;;;4.63;;
549;SDS011;20066;48.764;9.176;2023-05-15T03:03:51;7.27;;;4.57;;
549;SDS011;20066;48.764;9.176;2023-05-15T03:06:19;8.00;;;4.67;;
549;SDS011;20066;48.764;9.176;2023-05-15T03:08:46;11.27;;;5.53;;
549;SDS011;20066;48.764;9.176;2023-05-15T03:11:14;7.10;;;4.70;;
549;SDS011;20066;48.764;9.176;2023-05-15T03:13:44;6.90;;;4.30;;
549;SDS011;20066;48.764;9.176;2023-05-15T03:16:12;7.23;;;4.60;;
549;SDS011;20066;48.764;9.176;2023-05-15T03:18:39;6.90;;;4.60;;
549;SDS011;20066;48.764;9.176;2023-05-15T03:21:09;9.67;;;5.60;;
549;SDS011;20066;48.764;9.176;2023-05-15T03:23:36;8.80;;;4.80;;
549;SDS011;20066;48.764;9.176;2023-05-15T03:26:04;8.43;;;4.60;;
549;SDS011;20066;48.764;9.176;2023-05-15T03:28:32;8.40;;;4.77;;
549;SDS011;20066;48.764;9.176;2023-05-15T03:31:00;6.50;;;4.23;;
549;SDS011;20066;48.764;9.176;2023-05-15T03:33:30;7.90;;;4.73;;
549;SDS011;20066;48.764;9.176;2023-05-15T03:35:58;7.97;;;4.53;;
549;SDS011;20066;48.764;9.176;2023-05-15T03:38:27;7.33;;;4.70;;
549;SDS011;20066;48.764;9.176;2023-05-15T03:40:56;6.90;;;4.50;;
549;SDS011;20066;48.764;9.176;2023-05-15T03:43:24;9.90;;;5.43;;
549;SDS011;20066;48.764;9.176;2023-05-15T03:45:51;8.00;;;4.67;;
549;SDS011;20066;48.764;9.176;2023-05-15T03:48:19;7.97;;;4.77;;
549;SDS011;20066;48.764;9.176;2023-05-15T03:50:47;7.73;;;4.90;;
549;SDS011;20066;48.764;9.176;2023-05-15T03:53:15;6.90;;;4.70;;
549;SDS011;20066;48.764;9.176;2023-05-15T03:55:44;6.50;;;4.50;;
549;SDS011;20066;48.764;9.176;2023-05-15T03:58:11;7.20;;;4.50;;
549;SDS011;20066;48.764;9.176;2023-05-15T04:00:39;5.90;;;4.50;;
549;SDS011;20066;48.764;9.176;2023-05-15T04:03:07;7.63;;;4.93;;
549;SDS011;20066;48.764;9.176;2023-05-15T04:05:35;7.67;;;4.40;;
549;SDS011;20066;48.764;9.176;2023-05-15T04:08:03;7.63;;;4.50;;
549;SDS011;20066;48.764;9.176;2023-05-15T04:10:31;7.23;;;4.97;;
549;SDS011;20066;48.764;9.176;2023-05-15T04:13:00;8.30;;;5.47;;
549;SDS011;20066;48.764;9.176;2023-05-15T04:15:28;11.17;;;5.87;;
549;SDS011;20066;48.764;9.176;2023-05-15T04:17:56;9.23;;;5.07;;
549;SDS011;20066;48.764;9.176;2023-05-15T04:20:23;8.40;;;4.73;;
549;SDS011;20066;48.764;9.176;2023-05-15T04:22:51;7.27;;;4.87;;
549;SDS011;20066;48.764;9.176;2023-05-15T04:25:19;11.43;;;5.23;;
549;SDS011;20066;48.764;9.176;2023-05-15T04:27:47;7.87;;;4.77;;
549;SDS011;20066;48.764;9.176;2023-05-15T04:30:17;8.67;;;5.43;;
549;SDS011;20066;48.764;9.176;2023-05-15T04:32:44;8.53;;;5.30;;
549;SDS011;20066;48.764;9.176;2023-05-15T04:35:12;7.27;;;4.87;;
549;SDS011;20066;48.764;9.176;2023-05-15T04:37:41;6.00;;;4.47;;
549;SDS011;20066;48.764;9.176;2023-05-15T04:40:11;8.20;;;5.33;;
549;SDS011;20066;48.764;9.176;2023-05-15T04:42:40;6.63;;;4.47;;
549;SDS011;20066;48.764;9.176;2023-05-15T04:45:08;11.80;;;5.60;;
549;SDS011;20066;48.764;9.176;2023-05-15T04:47:38;9.20;;;5.30;;
549;SDS011;20066;48.764;9.176;2023-05-15T04:50:06;8.00;;;4.37;;
549;SDS011;20066;48.764;9.176;2023-05-15T04:52:34;8.80;;;5.00;;
549;SDS011;20066;48.764;9.176;2023-05-15T04:55:02;6.00;;;4.53;;
549;SDS011;20066;48.764;9.176;2023-05-15T04:57:30;8.33;;;5.23;;
549;SDS011;20066;48.764;9.176;2023-05-15T04:59:58;7.10;;;4.87;;
549;SDS011;20066;48.764;9.176;2023-05-15T05:02:26;10.80;;;5.97;;
549;SDS011;20066;48.764;9.176;2023-05-15T05:04:55;11.73;;;5.80;;
549;SDS011;20066;48.764;9.176;2023-05-15T05:07:23;8.53;;;5.57;;
549;SDS011;20066;48.764;9.176;2023-05-15T05:09:51;7.93;;;5.80;;
549;SDS011;20066;48.764;9.176;2023-05-15T05:12:19;9.03;;;6.10;;
549;SDS011;20066;48.764;9.176;2023-05-15T05:14:46;8.67;;;5.87;;
549;SDS011;20066;48.764;9.176;2023-05-15T05:17:14;9.97;;;6.40;;
549;SDS011;20066;48.764;9.176;2023-05-15T05:19:42;8.17;;;5.73;;
549;SDS011;20066;48.764;9.176;2023-05-15T05:22:11;8.50;;;5.30;;
549;SDS011;20066;48.764;9.176;2023-05-15T05:24:39;6.77;;;5.43;;
549;SDS011;20066;48.764;9.176;2023-05-15T05:27:07;10.40;;;5.37;;
549;SDS011;20066;48.764;9.176;2023-05-15T05:29:35;9.40;;;5.87;;
549;SDS011;20066;48.764;9.176;2023-05-15T05:32:03;8.90;;;6.10;;
549;SDS011;20066;48.764;9.176;2023-05-15T05:34:32;8.30;;;5.90;;
549;SDS011;20066;48.764;9.176;2023-05-15T05:36:59;10.90;;;6.13;;
549;SDS011;20066;48.764;9.176;2023-05-15T05:39:28;10.97;;;6.60;;
549;SDS011;20066;48.764;9.176;2023-05-15T05:41:56;9.57;;;6.47;;
549;SDS011;20066;48.764;9.176;2023-05-15T05:44:24;9.37;;;5.93;;
549;SDS011;20066;48.764;9.176;2023-05-15T05:46:53;11.57;;;6.87;;
549;SDS011;20066;48.764;9.176;2023-05-15T05:49:21;13.07;;;5.83;;
549;SDS011;20066;48.764;9.176;2023-05-15T05:51:48;9.83;;;6.57;;
549;SDS011;20066;48.764;9.176;2023-05-15T05:54:16;9.40;;;6.47;;
549;SDS011;20066;48.764;9.176;2023-05-15T05:56:45;13.30;;;7.27;;
549;SDS011;20066;48.764;9.176;2023-05-15T05:59:13;11.57;;;7.30;;
549;SDS011;20066;48.764;9.176;2023-05-15T06:01:41;9.73;;;6.50;;
549;SDS011;20066;48.764;9.176;2023-05-15T06:04:09;13.37;;;7.83;;
549;SDS011;20066;48.764;9.176;2023-05-15T06:06:37;15.17;;;8.27;;
549;SDS011;20066;48.764;9.176;2023-05-15T06:09:06;13.97;;;7.10;;
549;SDS011;20066;48.764;9.176;2023-05-15T06:11:34;17.10;;;8.00;;
549;SDS011;20066;48.764;9.176;2023-05-15T06:14:03;14.20;;;8.03;;
549;SDS011;20066;48.764;9.176;2023-05-15T06:16:33;11.47;;;7.30;;
549;SDS011;20066;48.764;9.176;2023-05-15T06:19:01;11.47;;;7.07;;
549;SDS011;20066;48.764;9.176;2023-05-15T06:21:29;14.50;;;8.50;;
549;SDS011;20066;48.764;9.176;2023-05-15T06:23:57;13.30;;;8.03;;
549;SDS011;20066;48.764;9.176;2023-05-15T06:26:25;11.20;;;7.23;;
549;SDS011;20066;48.764;9.176;2023-05-15T06:28:52;11.33;;;7.63;;
549;SDS011;20066;48.764;9.176;2023-05-15T06:31:22;9.63;;;6.40;;
549;SDS011;20066;48.764;9.176;2023-05-15T06:33:50;12.20;;;7.77;;
549;SDS011;20066;48.764;9.176;2023-05-15T06:36:17;10.80;;;6.90;;
549;SDS011;20066;48.764;9.176;2023-05-15T06:38:45;12.53;;;7.00;;
549;SDS011;20066;48.764;9.176;2023-05-15T06:41:13;10.23;;;6.50;;
549;SDS011;20066;48.764;9.176;2023-05-15T06:43:40;10.63;;;6.60;;
549;SDS011;20066;48.764;9.176;2023-05-15T06:46:08;11.87;;;7.27;;
549;SDS011;20066;48.764;9.176;2023-05-15T06:48:37;10.37;;;6.60;;
549;SDS011;20066;48.764;9.176;2023-05-15T06:51:05;10.20;;;6.83;;
549;SDS011;20066;48.764;9.176;2023-05-15T06:53:33;11.10;;;5.70;;
549;SDS011;20066;48.764;9.176;2023-05-15T06:56:01;9.17;;;5.90;;
549;SDS011;20066;48.764;9.176;2023-05-15T06:58:28;9.77;;;6.40;;
549;SDS011;20066;48.764;9.176;2023-05-15T07:00:56;9.13;;;5.87;;
549;SDS011;20066;48.764;9.176;2023-05-15T07:03:25;7.53;;;5.00;;
549;SDS011;20066;48.764;9.176;2023-05-15T07:05:55;9.10;;;5.67;;
549;SDS011;20066;48.764;9.176;2023-05-15T07:08:23;8.93;;;5.57;;
549;SDS011;20066;48.764;9.176;2023-05-15T07:10:51;7.17;;;5.67;;
549;SDS011;20066;48.764;9.176;2023-05-15T07:13:19;9.83;;;5.60;;
549;SDS011;20066;48.764;9.176;2023-05-15T07:15:47;9.10;;;5.40;;
549;SDS011;20066;48.764;9.176;2023-05-15T07:18:15;12.30;;;4.50;;
549;SDS011;20066;48.764;9.176;2023-05-15T07:20:43;12.37;;;5.20;;
549;SDS011;20066;48.764;9.176;2023-05-15T07:23:12;10.17;;;4.90;;
549;SDS011;20066;48.764;9.176;2023-05-15T07:25:40;7.23;;;5.27;;
549;SDS011;20066;48.764;9.176;2023-05-15T07:28:08;8.10;;;4.60;;
549;SDS011;20066;48.764;9.176;2023-05-15T07:30:36;8.33;;;4.70;;
549;SDS011;20066;48.764;9.176;2023-05-15T07:33:04;9.37;;;5.13;;
549;SDS011;20066;48.764;9.176;2023-05-15T07:35:32;6.97;;;4.80;;
549;SDS011;20066;48.764;9.176;2023-05-15T07:37:59;9.20;;;4.90;;
549;SDS011;20066;48.764;9.176;2023-05-15T07:40:29;7.77;;;4.50;;
549;SDS011;20066;48.764;9.176;2023-05-15T07:42:58;8.43;;;4.53;;
549;SDS011;20066;48.764;9.176;2023-05-15T07:45:25;6.73;;;4.37;;
549;SDS011;20066;48.764;9.176;2023-05-15T07:47:54;7.67;;;3.97;;
549;SDS011;20066;48.764;9.176;2023-05-15T07:50:24;9.97;;;3.73;;
549;SDS011;20066;48.764;9.176;2023-05-15T07:52:51;8.47;;;3.57;;
549;SDS011;20066;48.764;9.176;2023-05-15T07:55:19;8.93;;;4.33;;
549;SDS011;20066;48.764;9.176;2023-05-15T07:57:49;6.60;;;4.10;;
549;SDS011;20066;48.764;9.176;2023-05-15T08:00:19;8.17;;;4.60;;
549;SDS011;20066;48.764;9.176;2023-05-15T08:02:48;7.03;;;3.80;;
549;SDS011;20066;48.764;9.176;2023-05-15T08:05:15;6.60;;;3.93;;
549;SDS011;20066;48.764;9.176;2023-05-15T08:07:44;6.00;;;4.20;;
549;SDS011;20066;48.764;9.176;2023-05-15T08:10:11;5.23;;;3.57;;
549;SDS011;20066;48.764;9.176;2023-05-15T08:12:39;5.67;;;3.73;;
549;SDS011;20066;48.764;9.176;2023-05-15T08:15:12;5.20;;;3.63;;
549;SDS011;20066;48.764;9.176;2023-05-15T08:17:40;7.17;;;4.27;;
549;SDS011;20066;48.764;9.176;2023-05-15T08:20:09;6.53;;;4.17;;
549;SDS011;20066;48.764;9.176;2023-05-15T08:22:37;5.67;;;3.70;;
549;SDS011;20066;48.764;9.176;2023-05-15T08:25:05;6.63;;;3.93;;
549;SDS011;20066;48.764;9.176;2023-05-15T08:27:34;7.13;;;3.63;;
549;SDS011;20066;48.764;9.176;2023-05-15T08:30:01;7.63;;;4.33;;
549;SDS011;20066;48.764;9.176;2023-05-15T08:32:31;6.67;;;3.93;;
549;SDS011;20066;48.764;9.176;2023-05-15T08:34:59;7.67;;;3.33;;
549;SDS011;20066;48.764;9.176;2023-05-15T08:37:27;7.77;;;4.30;;
549;SDS011;20066;48.764;9.176;2023-05-15T08:39:55;7.73;;;3.40;;
549;SDS011;20066;48.764;9.176;2023-05-15T08:42:23;5.70;;;3.60;;
549;SDS011;20066;48.764;9.176;2023-05-15T08:44:59;5.57;;;3.73;;
549;SDS011;20066;48.764;9.176;2023-05-15T08:47:27;7.47;;;3.50;;
549;SDS011;20066;48.764;9.176;2023-05-15T08:49:58;8.97;;;3.80;;
549;SDS011;20066;48.764;9.176;2023-05-15T08:52:32;10.00;;;4.17;;
549;SDS011;20066;48.764;9.176;2023-05-15T08:55:00;6.93;;;4.40;;
549;SDS011;20066;48.764;9.176;2023-05-15T08:57:29;6.13;;;4.47;;
549;SDS011;20066;48.764;9.176;2023-05-15T08:59:59;7.37;;;4.47;;
549;SDS011;20066;48.764;9.176;2023-05-15T09:02:32;9.33;;;4.97;;
549;SDS011;20066;48.764;9.176;2023-05-15T09:05:02;11.70;;;5.10;;
549;SDS011;20066;48.764;9.176;2023-05-15T09:07:30;5.50;;;3.63;;
549;SDS011;20066;48.764;9.176;2023-05-15T09:10:00;6.20;;;4.43;;
549;SDS011;20066;48.764;9.176;2023-05-15T09:12:29;5.50;;;3.60;;
549;SDS011;20066;48.764;9.176;2023-05-15T09:15:10;6.77;;;4.37;;
549;SDS011;20066;48.764;9.176;2023-05-15T09:17:40;7.40;;;4.10;;
549;SDS011;20066;48.764;9.176;2023-05-15T09:20:23;6.40;;;4.60;;
549;SDS011;20066;48.764;9.176;2023-05-15T09:22:53;11.03;;;5.20;;
549;SDS011;20066;48.764;9.176;2023-05-15T09:25:36;7.30;;;5.10;;
549;SDS011;20066;48.764;9.176;2023-05-15T09:28:05;9.80;;;4.60;;
549;SDS011;20066;48.764;9.176;2023-05-15T09:30:36;9.70;;;4.30;;
549;SDS011;20066;48.764;9.176;2023-05-15T09:33:04;7.40;;;4.97;;
549;SDS011;20066;48.764;9.176;2023-05-15T09:35:34;9.17;;;5.90;;
549;SDS011;20066;48.764;9.176;2023-05-15T09:38:03;9.50;;;5.10;;
549;SDS011;20066;48.764;9.176;2023-05-15T09:40:35;11.23;;;4.93;;
549;SDS011;20066;48.764;9.176;2023-05-15T09:43:05;9.33;;;5.30;;
549;SDS011;20066;48.764;9.176;2023-05-15T09:45:32;6.83;;;4.23;;
549;SDS011;20066;48.764;9.176;2023-05-15T09:48:03;8.30;;;5.33;;
549;SDS011;20066;48.764;9.176;2023-05-15T09:50:33;7.10;;;5.00;;
549;SDS011;20066;48.764;9.176;2023-05-15T09:53:03;6.40;;;4.87;;
549;SDS011;20066;48.764;9.176;2023-05-15T09:55:32;14.77;;;4.67;;
549;SDS011;20066;48.764;9.176;2023-05-15T09:58:05;9.30;;;5.17;;
549;SDS011;20066;48.764;9.176;2023-05-15T10:00:34;10.13;;;4.80;;
549;SDS011;20066;48.764;9.176;2023-05-15T10:03:15;8.47;;;4.70;;
549;SDS011;20066;48.764;9.176;2023-05-15T10:05:46;6.77;;;4.20;;
549;SDS011;20066;48.764;9.176;2023-05-15T10:08:15;7.07;;;4.87;;
549;SDS011;20066;48.764;9.176;2023-05-15T10:10:52;7.30;;;4.40;;
549;SDS011;20066;48.764;9.176;2023-05-15T10:13:20;8.13;;;4.73;;
549;SDS011;20066;48.764;9.176;2023-05-15T10:15:49;10.00;;;4.17;;
549;SDS011;20066;48.764;9.176;2023-05-15T10:18:19;6.13;;;4.73;;
549;SDS011;20066;48.764;9.176;2023-05-15T10:20:53;7.50;;;4.47;;
549;SDS011;20066;48.764;9.176;2023-05-15T10:23:23;6.00;;;4.30;;
549;SDS011;20066;48.764;9.176;2023-05-15T10:25:53;9.47;;;4.23;;
549;SDS011;20066;48.764;9.176;2023-05-15T10:28:28;7.97;;;5.37;;
549;SDS011;20066;48.764;9.176;2023-05-15T10:30:57;5.87;;;4.40;;
549;SDS011;20066;48.764;9.176;2023-05-15T10:33:27;6.97;;;4.50;;
549;SDS011;20066;48.764;9.176;2023-05-15T10:35:57;5.83;;;4.43;;
549;SDS011;20066;48.764;9.176;2023-05-15T10:38:25;6.33;;;4.30;;
549;SDS011;20066;48.764;9.176;2023-05-15T10:40:56;9.20;;;4.87;;
549;SDS011;20066;48.764;9.176;2023-05-15T10:43:42;6.50;;;4.10;;
549;SDS011;20066;48.764;9.176;2023-05-15T10:46:11;9.57;;;4.60;;
549;SDS011;20066;48.764;9.176;2023-05-15T10:48:40;7.10;;;4.60;;
549;SDS011;20066;48.764;9.176;2023-05-15T10:51:14;8.80;;;3.67;;
549;SDS011;20066;48.764;9.176;2023-05-15T10:53:43;6.37;;;3.47;;
549;SDS011;20066;48.764;9.176;2023-05-15T10:56:12;4.70;;;3.30;;
549;SDS011;20066;48.764;9.176;2023-05-15T10:58:45;4.80;;;3.20;;
549;SDS011;20066;48.764;9.176;2023-05-15T11:04:06;5.80;;;3.70;;
549;SDS011;20066;48.764;9.176;2023-05-15T11:06:37;5.97;;;3.20;;
549;SDS011;20066;48.764;9.176;2023-05-15T11:12:01;4.43;;;3.13;;
549;SDS011;20066;48.764;9.176;2023-05-15T11:14:29;5.13;;;3.50;;
549;SDS011;20066;48.764;9.176;2023-05-15T11:16:58;5.80;;;3.00;;
549;SDS011;20066;48.764;9.176;2023-05-15T11:22:31;4.80;;;3.27;;
549;SDS011;20066;48.764;9.176;2023-05-15T11:25:03;4.87;;;3.47;;
549;SDS011;20066;48.764;9.176;2023-05-15T11:27:37;4.83;;;3.27;;
549;SDS011;20066;48.764;9.176;2023-05-15T11:30:07;11.43;;;3.90;;
549;SDS011;20066;48.764;9.176;2023-05-15T11:35:26;5.03;;;3.13;;
549;SDS011;20066;48.764;9.176;2023-05-15T11:37:57;11.60;;;3.40;;
549;SDS011;20066;48.764;9.176;2023-05-15T11:40:26;6.37;;;3.70;;
549;SDS011;20066;48.764;9.176;2023-05-15T11:42:59;4.90;;;3.17;;
549;SDS011;20066;48.764;9.176;2023-05-15T11:45:29;6.20;;;3.13;;
549;SDS011;20066;48.764;9.176;2023-05-15T11:47:59;4.17;;;3.23;;
549;SDS011;20066;48.764;9.176;2023-05-15T11:50:28;4.97;;;3.30;;
549;SDS011;20066;48.764;9.176;2023-05-15T11:53:01;5.50;;;3.40;;
549;SDS011;20066;48.764;9.176;2023-05-15T11:55:31;9.00;;;3.30;;
549;SDS011;20066;48.764;9.176;2023-05-15T11:58:00;4.70;;;3.37;;
549;SDS011;20066;48.764;9.176;2023-05-15T12:00:29;6.87;;;3.40;;
549;SDS011;20066;48.764;9.176;2023-05-15T12:02:57;8.00;;;3.60;;
549;SDS011;20066;48.764;9.176;2023-05-15T12:05:25;6.50;;;3.23;;
549;SDS011;20066;48.764;9.176;2023-05-15T12:07:53;4.70;;;3.50;;
549;SDS011;20066;48.764;9.176;2023-05-15T12:10:22;4.93;;;3.57;;
549;SDS011;20066;48.764;9.176;2023-05-15T12:12:50;8.37;;;3.07;;
549;SDS011;20066;48.764;9.176;2023-05-15T12:15:18;4.80;;;3.33;;
549;SDS011;20066;48.764;9.176;2023-05-15T12:17:46;4.43;;;3.03;;
549;SDS011;20066;48.764;9.176;2023-05-15T12:20:15;6.87;;;3.50;;
549;SDS011;20066;48.764;9.176;2023-05-15T12:22:44;8.10;;;3.30;;
549;SDS011;20066;48.764;9.176;2023-05-15T12:25:13;5.40;;;3.83;;
549;SDS011;20066;48.764;9.176;2023-05-15T12:27:44;5.37;;;4.20;;
549;SDS011;20066;48.764;9.176;2023-05-15T12:30:12;6.63;;;4.30;;
549;SDS011;20066;48.764;9.176;2023-05-15T12:32:40;4.53;;;3.80;;
549;SDS011;20066;48.764;9.176;2023-05-15T12:35:09;6.60;;;4.20;;
549;SDS011;20066;48.764;9.176;2023-05-15T12:37:37;5.70;;;3.80;;
549;SDS011;20066;48.764;9.176;2023-05-15T12:40:06;5.87;;;3.50;;
549;SDS011;20066;48.764;9.176;2023-05-15T12:42:39;4.33;;;3.30;;
549;SDS011;20066;48.764;9.176;2023-05-15T12:45:12;8.03;;;4.70;;
549;SDS011;20066;48.764;9.176;2023-05-15T12:47:41;6.00;;;4.33;;
549;SDS011;20066;48.764;9.176;2023-05-15T12:50:14;6.43;;;4.37;;
549;SDS011;20066;48.764;9.176;2023-05-15T12:52:46;8.63;;;4.37;;
549;SDS011;20066;48.764;9.176;2023-05-15T12:55:17;7.13;;;3.53;;
549;SDS011;20066;48.764;9.176;2023-05-15T12:57:49;10.33;;;4.17;;
549;SDS011;20066;48.764;9.176;2023-05-15T13:00:19;10.00;;;4.07;;
549;SDS011;20066;48.764;9.176;2023-05-15T13:02:48;29.27;;;4.50;;
549;SDS011;20066;48.764;9.176;2023-05-15T13:05:17;7.00;;;3.87;;
549;SDS011;20066;48.764;9.176;2023-05-15T13:07:45;6.23;;;3.90;;
549;SDS011;20066;48.764;9.176;2023-05-15T13:10:14;6.37;;;3.90;;
549;SDS011;20066;48.764;9.176;2023-05-15T13:12:42;9.10;;;4.00;;
549;SDS011;20066;48.764;9.176;2023-05-15T13:15:23;9.70;;;4.13;;
549;SDS011;20066;48.764;9.176;2023-05-15T13:17:53;5.50;;;3.80;;
549;SDS011;20066;48.764;9.176;2023-05-15T13:20:25;6.57;;;4.20;;
549;SDS011;20066;48.764;9.176;2023-05-15T13:22:54;6.13;;;4.20;;
549;SDS011;20066;48.764;9.176;2023-05-15T13:25:22;7.07;;;4.80;;
549;SDS011;20066;48.764;9.176;2023-05-15T13:27:50;8.00;;;4.40;;
549;SDS011;20066;48.764;9.176;2023-05-15T13:30:18;9.87;;;4.47;;
549;SDS011;20066;48.764;9.176;2023-05-15T13:32:47;6.93;;;4.50;;
549;SDS011;20066;48.764;9.176;2023-05-15T13:35:15;11.43;;;4.37;;
549;SDS011;20066;48.764;9.176;2023-05-15T13:37:43;10.43;;;4.53;;
549;SDS011;20066;48.764;9.176;2023-05-15T13:40:11;7.77;;;4.90;;
549;SDS011;20066;48.764;9.176;2023-05-15T13:42:40;8.67;;;4.67;;
549;SDS011;20066;48.764;9.176;2023-05-15T13:45:09;10.13;;;4.47;;
549;SDS011;20066;48.764;9.176;2023-05-15T13:47:38;10.67;;;6.67;;
549;SDS011;20066;48.764;9.176;2023-05-15T13:50:09;9.47;;;5.50;;
549;SDS011;20066;48.764;9.176;2023-05-15T13:52:38;8.27;;;4.90;;
549;SDS011;20066;48.764;9.176;2023-05-15T13:55:07;8.77;;;5.20;;
549;SDS011;20066;48.764;9.176;2023-05-15T13:57:36;11.80;;;5.33;;
549;SDS011;20066;48.764;9.176;2023-05-15T14:00:04;7.67;;;5.13;;
549;SDS011;20066;48.764;9.176;2023-05-15T14:02:34;8.60;;;4.53;;
549;SDS011;20066;48.764;9.176;2023-05-15T14:05:02;6.57;;;5.17;;
549;SDS011;20066;48.764;9.176;2023-05-15T14:07:32;6.97;;;4.77;;
549;SDS011;20066;48.764;9.176;2023-05-15T14:10:00;10.80;;;5.20;;
549;SDS011;20066;48.764;9.176;2023-05-15T14:12:28;10.73;;;5.27;;
549;SDS011;20066;48.764;9.176;2023-05-15T14:14:56;6.30;;;4.43;;
549;SDS011;20066;48.764;9.176;2023-05-15T14:17:24;6.87;;;4.93;;
549;SDS011;20066;48.764;9.176;2023-05-15T14:19:53;9.00;;;4.70;;
549;SDS011;20066;48.764;9.176;2023-05-15T14:22:21;6.47;;;4.80;;
549;SDS011;20066;48.764;9.176;2023-05-15T14:24:55;8.07;;;4.70;;
549;SDS011;20066;48.764;9.176;2023-05-15T14:27:24;11.70;;;4.87;;
549;SDS011;20066;48.764;9.176;2023-05-15T14:29:52;6.03;;;4.50;;
549;SDS011;20066;48.764;9.176;2023-05-15T14:32:21;6.73;;;4.57;;
549;SDS011;20066;48.764;9.176;2023-05-15T14:34:50;7.23;;;4.20;;
549;SDS011;20066;48.764;9.176;2023-05-15T14:37:18;7.50;;;4.40;;
549;SDS011;20066;48.764;9.176;2023-05-15T14:39:45;6.33;;;4.10;;
549;SDS011;20066;48.764;9.176;2023-05-15T14:42:15;6.93;;;5.10;;
549;SDS011;20066;48.764;9.176;2023-05-15T14:44:44;9.13;;;4.73;;
549;SDS011;20066;48.764;9.176;2023-05-15T14:47:12;9.63;;;4.17;;
549;SDS011;20066;48.764;9.176;2023-05-15T14:49:40;8.70;;;4.70;;
549;SDS011;20066;48.764;9.176;2023-05-15T14:52:08;10.40;;;5.37;;
549;SDS011;20066;48.764;9.176;2023-05-15T14:54:37;7.50;;;4.73;;
549;SDS011;20066;48.764;9.176;2023-05-15T14:57:05;7.03;;;5.27;;
549;SDS011;20066;48.764;9.176;2023-05-15T14:59:35;7.90;;;5.00;;
549;SDS011;20066;48.764;9.176;2023-05-15T15:02:03;8.57;;;5.37;;
549;SDS011;20066;48.764;9.176;2023-05-15T15:04:31;10.30;;;5.07;;
549;SDS011;20066;48.764;9.176;2023-05-15T15:07:02;6.93;;;5.13;;
549;SDS011;20066;48.764;9.176;2023-05-15T15:09:30;6.40;;;4.30;;
549;SDS011;20066;48.764;9.176;2023-05-15T15:11:58;6.53;;;4.80;;
549;SDS011;20066;48.764;9.176;2023-05-15T15:14:26;7.80;;;5.10;;
549;SDS011;20066;48.764;9.176;2023-05-15T15:16:55;6.23;;;4.40;;
549;SDS011;20066;48.764;9.176;2023-05-15T15:19:23;8.77;;;5.00;;
549;SDS011;20066;48.764;9.176;2023-05-15T15:21:51;7.97;;;4.60;;
549;SDS011;20066;48.764;9.176;2023-05-15T15:24:19;6.87;;;4.27;;
549;SDS011;20066;48.764;9.176;2023-05-15T15:26:46;8.80;;;5.27;;
549;SDS011;20066;48.764;9.176;2023-05-15T15:29:14;6.47;;;4.30;;
549;SDS011;20066;48.764;9.176;2023-05-15T15:31:42;6.07;;;4.00;;
549;SDS011;20066;48.764;9.176;2023-05-15T15:34:11;5.70;;;4.30;;
549;SDS011;20066;48.764;9.176;2023-05-15T15:36:39;7.33;;;4.13;;